Truckton, Colorado
Current Conditions -  °F | °C
As of 1:56 PM on Friday 24 Oct 2014 (Local Time) from KSHM Reporting Station
Clear Clear  
Wind Chill: 76°   Ceiling: Unl
Heat Index: 76°   Visibility: 10mi
Dew Point: 19°   Wind: 6mph
Humidity: 12%   Direction: 170°S
Pressure: 30.23"   Gusts: NA
Location:  38.697°N, 104.225°W
Report Text: KSHM 241956Z AUTO 17005KT 10SM CLR 24/M07 A3023 RMK AO2 SLP176 T02431074
Loading
Personal Weather Stations






























Interactive Weather Map
Tropical Storm Tracking
New forecast layout! Learn more

10-Day Weather Forecast

Advertisements
Track Severe Weather on mobile